createdAt,value
2019-03-28T00:00:05.966Z,91.70
2019-03-28T00:02:34.404Z,91.60
2019-03-28T00:05:02.790Z,91.70
2019-03-28T00:07:31.255Z,91.90
2019-03-28T00:09:59.630Z,91.90
2019-03-28T00:12:29.073Z,92.10
2019-03-28T00:14:57.454Z,92.10
2019-03-28T00:17:25.942Z,92.10
2019-03-28T00:19:54.376Z,92.10
2019-03-28T00:22:37.482Z,92.20
2019-03-28T00:25:07.585Z,92.20
2019-03-28T00:27:36.002Z,92.30
2019-03-28T00:30:06.406Z,92.20
2019-03-28T00:32:35.914Z,92.10
2019-03-28T00:35:05.922Z,92.20
2019-03-28T00:37:35.225Z,92.30
2019-03-28T00:40:04.799Z,92.30
2019-03-28T00:42:33.694Z,92.30
2019-03-28T00:45:02.069Z,92.40
2019-03-28T00:47:30.480Z,92.50
2019-03-28T00:49:58.867Z,92.40
2019-03-28T00:52:27.455Z,92.40
2019-03-28T00:54:55.831Z,92.40
2019-03-28T00:57:24.264Z,92.50
2019-03-28T00:59:52.663Z,92.50
2019-03-28T01:02:21.242Z,92.50
2019-03-28T01:04:49.861Z,92.60
2019-03-28T01:07:18.228Z,92.50
2019-03-28T01:09:46.643Z,92.60
2019-03-28T01:12:16.003Z,92.60
2019-03-28T01:14:44.466Z,92.60
2019-03-28T01:17:12.837Z,92.60
2019-03-28T01:19:41.282Z,92.70
2019-03-28T01:22:09.667Z,92.70
2019-03-28T01:24:38.089Z,92.70
2019-03-28T01:27:06.537Z,92.70
2019-03-28T01:29:34.932Z,92.70
2019-03-28T01:32:03.370Z,92.70
2019-03-28T01:34:31.824Z,92.80
2019-03-28T01:37:00.189Z,92.90
2019-03-28T01:39:28.670Z,92.90
2019-03-28T01:41:57.047Z,92.90
2019-03-28T01:44:25.466Z,92.90
2019-03-28T01:46:53.850Z,92.90
2019-03-28T01:49:22.294Z,92.90
2019-03-28T01:51:50.677Z,92.80
2019-03-28T01:54:20.073Z,92.70
2019-03-28T01:56:48.497Z,92.90
2019-03-28T01:59:16.883Z,92.90
2019-03-28T02:01:45.300Z,92.90
2019-03-28T02:04:13.709Z,93.10
2019-03-28T02:06:42.097Z,92.90
2019-03-28T02:09:10.719Z,93.00
2019-03-28T02:11:39.133Z,93.00
2019-03-28T02:14:07.564Z,93.00
2019-03-28T02:16:36.006Z,93.10
2019-03-28T02:19:06.454Z,93.10
2019-03-28T02:21:35.056Z,93.10
2019-03-28T02:24:03.514Z,93.20
2019-03-28T02:26:31.903Z,93.10
2019-03-28T02:29:00.360Z,93.10
2019-03-28T02:31:28.803Z,93.20
2019-03-28T02:33:57.204Z,93.20
2019-03-28T02:36:25.593Z,93.20
2019-03-28T02:38:54.003Z,93.20
2019-03-28T02:41:22.481Z,93.30
2019-03-28T02:43:50.932Z,93.70
2019-03-28T02:46:19.368Z,93.30
2019-03-28T02:48:47.749Z,93.30
2019-03-28T02:51:16.233Z,93.20
2019-03-28T02:53:44.602Z,93.30
2019-03-28T02:56:13.084Z,93.40
2019-03-28T02:58:41.454Z,93.30
2019-03-28T03:01:10.024Z,93.40
2019-03-28T03:03:39.325Z,93.40
2019-03-28T03:06:07.735Z,93.60
2019-03-28T03:08:36.127Z,93.40
2019-03-28T03:11:04.533Z,93.40
2019-03-28T03:13:33.015Z,93.40
2019-03-28T03:16:01.403Z,93.60
2019-03-28T03:18:29.819Z,93.60
2019-03-28T03:20:58.210Z,93.70
2019-03-28T03:23:26.687Z,93.60
2019-03-28T03:25:55.102Z,93.60
2019-03-28T03:28:23.501Z,93.70
2019-03-28T03:30:51.903Z,93.70
2019-03-28T03:33:20.537Z,93.80
2019-03-28T03:35:50.117Z,93.60
2019-03-28T03:38:18.630Z,93.70
2019-03-28T03:40:47.018Z,93.60
2019-03-28T03:43:15.407Z,93.70
2019-03-28T03:45:43.814Z,93.60
2019-03-28T03:48:12.305Z,93.70
2019-03-28T03:50:40.814Z,93.70
2019-03-28T03:53:09.253Z,93.70
2019-03-28T03:55:37.762Z,93.70
2019-03-28T03:58:15.660Z,93.90
2019-03-28T04:00:36.690Z,94.10
2019-03-28T04:03:05.077Z,93.90
2019-03-28T04:05:33.544Z,94.00
2019-03-28T04:08:01.912Z,94.00
2019-03-28T04:10:30.448Z,94.00
2019-03-28T04:12:58.839Z,94.00
2019-03-28T04:15:27.226Z,93.90
2019-03-28T04:17:55.694Z,93.80
2019-03-28T04:20:24.910Z,93.90
2019-03-28T04:22:53.895Z,94.00
2019-03-28T04:25:22.314Z,94.10
2019-03-28T04:27:50.691Z,94.00
2019-03-28T04:30:19.104Z,94.00
2019-03-28T04:32:47.526Z,94.00
2019-03-28T04:35:15.905Z,94.00
2019-03-28T04:37:44.336Z,94.00
2019-03-28T04:40:12.777Z,94.00
2019-03-28T04:42:41.169Z,94.00
2019-03-28T04:45:32.408Z,94.30
2019-03-28T04:48:01.517Z,94.30
2019-03-28T04:50:30.047Z,94.30
2019-03-28T04:52:58.458Z,94.40
2019-03-28T04:55:26.869Z,94.40
2019-03-28T04:57:55.474Z,94.60
2019-03-28T05:00:24.103Z,94.70
2019-03-28T05:02:52.654Z,94.40
2019-03-28T05:05:21.087Z,94.50
2019-03-28T05:07:49.525Z,94.50
2019-03-28T05:10:17.998Z,94.30
2019-03-28T05:12:46.376Z,94.40
2019-03-28T05:15:14.851Z,94.50
2019-03-28T05:17:43.235Z,94.70
2019-03-28T05:20:13.241Z,94.60
2019-03-28T05:22:41.745Z,94.40
2019-03-28T05:25:10.220Z,94.40
2019-03-28T05:27:38.802Z,94.30
2019-03-28T05:30:09.015Z,94.30
2019-03-28T05:32:38.394Z,94.20
2019-03-28T05:35:07.035Z,94.20
2019-03-28T05:37:36.373Z,94.20
2019-03-28T05:40:07.065Z,94.30
2019-03-28T05:42:35.454Z,94.30
2019-03-28T05:45:06.376Z,94.20
2019-03-28T05:47:34.894Z,94.20
2019-03-28T05:50:03.742Z,94.10
2019-03-28T05:52:32.170Z,94.00
2019-03-28T05:55:00.647Z,94.00
2019-03-28T05:57:29.004Z,94.10
2019-03-28T05:59:57.500Z,94.00
2019-03-28T06:02:26.136Z,94.00
2019-03-28T06:04:54.633Z,94.30
2019-03-28T06:07:23.004Z,93.80
2019-03-28T06:09:51.414Z,93.80
2019-03-28T06:12:19.858Z,93.80
2019-03-28T06:14:48.282Z,93.80
2019-03-28T06:17:16.677Z,93.80
2019-03-28T06:19:45.110Z,93.80
2019-03-28T06:22:13.708Z,93.70
2019-03-28T06:24:42.106Z,93.60
2019-03-28T06:27:10.490Z,93.40
2019-03-28T06:29:38.930Z,93.40
2019-03-28T06:32:07.351Z,93.20
2019-03-28T06:34:35.734Z,93.20
2019-03-28T06:37:04.208Z,93.00
2019-03-28T06:39:32.574Z,92.80
2019-03-28T06:42:01.064Z,92.70
2019-03-28T06:44:29.432Z,92.70
2019-03-28T06:46:57.847Z,93.00
2019-03-28T06:49:26.232Z,92.90
2019-03-28T06:51:54.669Z,92.80
2019-03-28T06:54:24.420Z,92.30
2019-03-28T06:56:52.992Z,92.40
2019-03-28T06:59:21.370Z,92.50
2019-03-28T07:01:52.046Z,92.40
2019-03-28T07:04:20.613Z,92.30
2019-03-28T07:06:48.986Z,92.20
2019-03-28T07:09:18.289Z,92.00
2019-03-28T07:11:47.772Z,91.80
2019-03-28T07:14:16.246Z,91.60
2019-03-28T07:16:44.623Z,91.90
2019-03-28T07:19:13.112Z,91.90
2019-03-28T07:21:41.585Z,91.70
2019-03-28T07:24:10.022Z,91.80
2019-03-28T07:26:38.392Z,91.80
2019-03-28T07:29:06.961Z,92.00
2019-03-28T07:31:35.736Z,91.80
2019-03-28T07:34:27.397Z,91.70
2019-03-28T07:36:55.875Z,91.50
2019-03-28T07:39:24.189Z,91.30
2019-03-28T07:41:53.648Z,91.00
2019-03-28T07:44:22.156Z,91.30
2019-03-28T07:46:50.542Z,90.80
2019-03-28T07:49:19.984Z,90.90
2019-03-28T07:51:48.549Z,90.90
2019-03-28T07:54:16.946Z,90.70
2019-03-28T07:56:45.416Z,90.60
2019-03-28T07:59:13.852Z,89.70
2019-03-28T08:01:42.283Z,89.40
2019-03-28T08:04:12.281Z,88.70
2019-03-28T08:06:49.729Z,87.40
2019-03-28T08:09:10.998Z,89.20
2019-03-28T08:11:39.489Z,87.70
2019-03-28T08:14:07.853Z,89.50
2019-03-28T08:16:36.307Z,90.20
2019-03-28T08:19:07.841Z,87.30
2019-03-28T08:21:34.837Z,88.30
2019-03-28T08:24:03.308Z,87.90
2019-03-28T08:26:31.702Z,85.70
2019-03-28T08:29:00.175Z,87.20
2019-03-28T08:31:28.569Z,86.50
2019-03-28T08:33:56.982Z,84.80
2019-03-28T08:36:25.441Z,86.60
2019-03-28T08:38:53.826Z,85.10
2019-03-28T08:41:22.300Z,86.50
2019-03-28T08:43:50.844Z,86.20
2019-03-28T08:46:20.216Z,84.70
2019-03-28T08:48:48.657Z,85.30
2019-03-28T08:51:17.104Z,83.30
2019-03-28T08:53:45.543Z,85.40
2019-03-28T08:56:13.994Z,82.40
2019-03-28T08:58:42.465Z,82.80
2019-03-28T09:01:10.867Z,84.60
2019-03-28T09:03:39.255Z,83.00
2019-03-28T09:06:07.662Z,83.00
2019-03-28T09:08:36.138Z,82.30
2019-03-28T09:11:04.740Z,82.00
2019-03-28T09:13:33.184Z,81.30
2019-03-28T09:16:02.658Z,81.80
2019-03-28T09:18:31.063Z,82.50
2019-03-28T09:20:59.455Z,83.40
2019-03-28T09:23:27.921Z,82.20
2019-03-28T09:25:56.318Z,80.30
2019-03-28T09:28:24.906Z,78.50
2019-03-28T09:30:54.305Z,78.50
2019-03-28T09:33:22.787Z,77.30
2019-03-28T09:35:51.199Z,76.70
2019-03-28T09:38:19.673Z,75.60
2019-03-28T09:40:48.131Z,78.20
2019-03-28T09:43:16.551Z,78.50
2019-03-28T09:45:45.995Z,76.10
2019-03-28T09:48:14.439Z,75.50
2019-03-28T09:50:42.849Z,76.30
2019-03-28T09:53:11.245Z,76.80
2019-03-28T09:55:39.711Z,75.50
2019-03-28T09:58:08.085Z,76.10
2019-03-28T10:00:36.564Z,73.90
2019-03-28T10:03:04.995Z,74.90
2019-03-28T10:05:33.446Z,72.80
2019-03-28T10:08:01.863Z,72.30
2019-03-28T10:10:30.254Z,72.00
2019-03-28T10:12:58.703Z,70.30
2019-03-28T10:15:27.280Z,68.10
2019-03-28T10:17:55.723Z,67.00
2019-03-28T10:20:24.096Z,69.30
2019-03-28T10:22:52.513Z,67.20
2019-03-28T10:25:20.914Z,65.20
2019-03-28T10:27:49.325Z,63.80
2019-03-28T10:30:19.476Z,67.20
2019-03-28T10:32:47.970Z,65.10
2019-03-28T10:35:23.637Z,61.10
2019-03-28T10:37:52.158Z,63.40
2019-03-28T10:40:20.558Z,64.70
2019-03-28T10:42:48.954Z,67.00
2019-03-28T10:45:17.366Z,68.50
2019-03-28T10:47:45.762Z,64.10
2019-03-28T10:50:14.240Z,66.50
2019-03-28T10:52:42.614Z,65.10
2019-03-28T10:55:11.144Z,66.70
2019-03-28T10:57:39.513Z,69.50
2019-03-28T11:00:08.093Z,67.80
2019-03-28T11:02:36.507Z,65.90
2019-03-28T11:05:05.909Z,65.30
2019-03-28T11:07:34.310Z,67.80
2019-03-28T11:10:02.824Z,68.80
2019-03-28T11:12:31.276Z,67.70
2019-03-28T11:14:59.690Z,65.50
2019-03-28T11:17:28.105Z,66.90
2019-03-28T11:19:56.506Z,67.00
2019-03-28T11:22:24.972Z,68.00
2019-03-28T11:24:53.445Z,67.90
2019-03-28T11:27:21.835Z,68.10
2019-03-28T11:29:50.282Z,67.20
2019-03-28T11:32:18.784Z,67.90
2019-03-28T11:34:47.491Z,67.10
2019-03-28T11:37:25.953Z,65.30
2019-03-28T11:39:46.660Z,65.30
2019-03-28T11:42:15.301Z,65.30
2019-03-28T11:44:43.719Z,63.50
2019-03-28T11:47:12.169Z,63.60
2019-03-28T11:49:40.571Z,64.00
2019-03-28T11:52:09.022Z,65.10
2019-03-28T11:54:37.550Z,68.10
2019-03-28T11:57:05.994Z,68.50
2019-03-28T11:59:34.399Z,69.30
2019-03-28T12:02:18.691Z,67.50
2019-03-28T12:04:33.041Z,66.00
2019-03-28T12:07:01.466Z,67.00
2019-03-28T12:09:29.913Z,65.80
2019-03-28T12:11:58.309Z,64.60
2019-03-28T12:14:26.725Z,64.80
2019-03-28T12:16:55.138Z,61.70
2019-03-28T12:19:23.530Z,60.50
2019-03-28T12:21:52.011Z,62.80
2019-03-28T12:24:20.391Z,64.80
2019-03-28T12:26:48.915Z,60.10
2019-03-28T12:29:17.345Z,61.80
2019-03-28T12:31:46.762Z,65.50
2019-03-28T12:34:15.226Z,62.10
2019-03-28T12:36:44.687Z,59.00
2019-03-28T12:39:15.649Z,61.80
2019-03-28T12:41:43.455Z,60.80
2019-03-28T12:44:11.848Z,58.90
2019-03-28T12:46:40.332Z,58.60
2019-03-28T12:49:08.713Z,60.20
2019-03-28T12:51:37.104Z,62.10
2019-03-28T12:54:05.539Z,61.40
2019-03-28T12:56:33.924Z,62.30
2019-03-28T12:59:02.346Z,62.10
2019-03-28T13:01:30.758Z,61.80
2019-03-28T13:03:59.199Z,63.10
2019-03-28T13:06:27.640Z,62.60
2019-03-28T13:08:56.051Z,61.70
2019-03-28T13:11:24.442Z,61.10
2019-03-28T13:13:52.919Z,59.80
2019-03-28T13:16:21.352Z,59.70
2019-03-28T13:18:49.746Z,58.50
2019-03-28T13:21:18.137Z,59.20
2019-03-28T13:23:46.552Z,60.50
2019-03-28T13:26:15.008Z,61.20
2019-03-28T13:28:43.410Z,61.80
2019-03-28T13:31:11.891Z,61.20
2019-03-28T13:33:43.295Z,61.00
2019-03-28T13:36:12.684Z,62.80
2019-03-28T13:38:41.100Z,63.50
2019-03-28T13:41:09.537Z,63.80
2019-03-28T13:43:38.039Z,63.50
2019-03-28T13:46:06.693Z,62.30
2019-03-28T13:48:35.246Z,61.60
2019-03-28T13:51:03.689Z,62.40
2019-03-28T13:53:39.548Z,63.80
2019-03-28T13:56:02.134Z,62.50
2019-03-28T13:58:30.541Z,62.50
2019-03-28T14:00:58.942Z,61.80
2019-03-28T14:03:27.347Z,61.40
2019-03-28T14:05:55.844Z,61.90
2019-03-28T14:08:24.217Z,61.70
2019-03-28T14:10:52.612Z,63.30
2019-03-28T14:13:21.639Z,62.20
2019-03-28T14:15:50.252Z,62.40
2019-03-28T14:18:18.663Z,59.60
2019-03-28T14:20:47.122Z,59.40
2019-03-28T14:23:15.544Z,60.30
2019-03-28T14:25:44.900Z,62.70
2019-03-28T14:28:13.300Z,60.40
2019-03-28T14:30:41.686Z,60.00
2019-03-28T14:33:12.200Z,59.50
2019-03-28T14:35:40.282Z,60.20
2019-03-28T14:38:08.668Z,60.50
2019-03-28T14:40:37.198Z,62.20
2019-03-28T14:43:07.037Z,62.70
2019-03-28T14:45:43.378Z,63.60
2019-03-28T14:48:11.750Z,62.10
2019-03-28T14:50:40.480Z,59.00
2019-03-28T14:53:08.822Z,61.30
2019-03-28T14:55:37.251Z,59.70
2019-03-28T14:58:06.668Z,60.60
2019-03-28T15:00:46.525Z,60.10
2019-03-28T15:03:25.043Z,58.20
2019-03-28T15:05:43.603Z,57.40
2019-03-28T15:08:11.961Z,59.20
2019-03-28T15:10:40.405Z,59.00
2019-03-28T15:13:08.811Z,57.50
2019-03-28T15:15:37.247Z,57.30
2019-03-28T15:18:05.657Z,59.60
2019-03-28T15:20:34.143Z,57.50
2019-03-28T15:23:02.547Z,59.20
2019-03-28T15:25:30.954Z,59.60
2019-03-28T15:27:59.410Z,58.60
2019-03-28T15:30:27.827Z,59.30
2019-03-28T15:32:56.229Z,59.20
2019-03-28T15:35:24.670Z,59.90
2019-03-28T15:37:53.074Z,59.70
2019-03-28T15:40:21.512Z,62.10
2019-03-28T15:42:49.915Z,61.20
2019-03-28T15:45:18.332Z,61.50
2019-03-28T15:47:46.768Z,61.40
2019-03-28T15:50:15.212Z,62.00
2019-03-28T15:52:43.616Z,62.40
2019-03-28T15:55:14.565Z,62.60
2019-03-28T15:57:42.118Z,62.40
2019-03-28T16:00:13.644Z,62.90
2019-03-28T16:02:42.042Z,62.70
2019-03-28T16:05:10.490Z,62.50
2019-03-28T16:07:38.884Z,62.30
2019-03-28T16:10:07.705Z,63.70
2019-03-28T16:12:36.118Z,64.00
2019-03-28T16:15:07.836Z,63.00
2019-03-28T16:17:36.267Z,63.60
2019-03-28T16:20:06.633Z,63.00
2019-03-28T16:22:35.060Z,63.80
2019-03-28T16:25:04.145Z,63.40
2019-03-28T16:27:32.570Z,62.70
2019-03-28T16:30:00.986Z,63.00
2019-03-28T16:32:32.846Z,63.20
2019-03-28T16:35:01.244Z,63.40
2019-03-28T16:37:29.688Z,63.30
2019-03-28T16:39:58.119Z,62.60
2019-03-28T16:42:26.539Z,61.90
2019-03-28T16:44:54.966Z,63.60
2019-03-28T16:47:23.398Z,63.40
2019-03-28T16:49:51.826Z,64.00
2019-03-28T16:52:20.236Z,63.20
2019-03-28T16:54:48.675Z,64.40
2019-03-28T16:57:17.079Z,64.60
2019-03-28T16:59:45.532Z,64.00
2019-03-28T17:02:14.928Z,64.60
2019-03-28T17:04:43.346Z,63.90
2019-03-28T17:07:11.764Z,63.20
2019-03-28T17:09:40.182Z,64.40
2019-03-28T17:12:08.618Z,65.30
2019-03-28T17:14:37.347Z,65.20
2019-03-28T17:17:05.761Z,64.30
2019-03-28T17:19:34.162Z,65.50
2019-03-28T17:22:02.642Z,65.10
2019-03-28T17:24:31.047Z,65.20
2019-03-28T17:26:59.460Z,66.00
2019-03-28T17:29:27.911Z,66.70
2019-03-28T17:31:57.315Z,67.80
2019-03-28T17:34:34.765Z,67.20
2019-03-28T17:36:55.805Z,67.00
2019-03-28T17:39:24.218Z,67.20
2019-03-28T17:41:57.746Z,68.70
2019-03-28T17:44:26.422Z,68.70
2019-03-28T17:46:54.849Z,68.90
2019-03-28T17:49:23.299Z,69.20
2019-03-28T17:51:51.741Z,69.40
2019-03-28T17:54:20.143Z,69.70
2019-03-28T17:56:49.239Z,70.00
2019-03-28T17:59:17.663Z,69.20
2019-03-28T18:01:47.023Z,69.30
2019-03-28T18:04:22.882Z,69.90
2019-03-28T18:06:46.541Z,71.10
2019-03-28T18:09:15.181Z,71.70
2019-03-28T18:11:43.598Z,71.10
2019-03-28T18:14:12.011Z,71.50
2019-03-28T18:16:40.434Z,71.70
2019-03-28T18:19:08.854Z,72.00
2019-03-28T18:21:37.297Z,72.20
2019-03-28T18:24:06.713Z,72.00
2019-03-28T18:26:35.136Z,72.30
2019-03-28T18:29:03.581Z,72.10
2019-03-28T18:31:32.039Z,72.20
2019-03-28T18:34:00.449Z,72.30
2019-03-28T18:36:28.877Z,72.60
2019-03-28T18:38:57.290Z,72.80
2019-03-28T18:41:25.695Z,73.00
2019-03-28T18:43:54.167Z,72.10
2019-03-28T18:46:22.570Z,71.90
2019-03-28T18:48:51.020Z,72.20
2019-03-28T18:51:19.427Z,73.10
2019-03-28T18:53:47.855Z,73.60
2019-03-28T18:56:16.254Z,73.30
2019-03-28T18:58:44.734Z,73.80
2019-03-28T19:01:13.145Z,73.60
2019-03-28T19:03:43.187Z,73.60
2019-03-28T19:06:14.785Z,73.60
2019-03-28T19:08:41.687Z,73.90
2019-03-28T19:11:10.128Z,76.00
2019-03-28T19:13:39.641Z,73.10
2019-03-28T19:16:08.301Z,72.90
2019-03-28T19:18:36.721Z,72.80
2019-03-28T19:21:05.174Z,74.20
2019-03-28T19:23:33.608Z,74.50
2019-03-28T19:26:02.020Z,77.00
2019-03-28T19:28:30.454Z,73.30
2019-03-28T19:30:58.886Z,73.00
2019-03-28T19:33:27.477Z,75.10
2019-03-28T19:35:56.949Z,75.30
2019-03-28T19:38:25.353Z,74.80
2019-03-28T19:40:53.779Z,76.30
2019-03-28T19:43:23.169Z,76.70
2019-03-28T19:45:51.738Z,76.10
2019-03-28T19:48:20.189Z,77.10
2019-03-28T19:50:48.596Z,78.10
2019-03-28T19:53:17.842Z,75.10
2019-03-28T19:55:46.550Z,75.40
2019-03-28T19:58:14.974Z,76.80
2019-03-28T20:00:44.023Z,76.80
2019-03-28T20:03:12.717Z,77.30
2019-03-28T20:05:47.468Z,79.20
2019-03-28T20:08:15.751Z,77.70
2019-03-28T20:10:41.278Z,78.40
2019-03-28T20:13:09.776Z,78.80
2019-03-28T20:15:38.179Z,78.50
2019-03-28T20:18:06.587Z,79.60
2019-03-28T20:20:35.028Z,75.80
2019-03-28T20:23:03.452Z,75.00
2019-03-28T20:25:32.662Z,75.20
2019-03-28T20:28:01.257Z,76.70
2019-03-28T20:30:29.710Z,77.80
2019-03-28T20:32:58.203Z,77.70
2019-03-28T20:35:26.616Z,77.60
2019-03-28T20:37:55.073Z,77.20
2019-03-28T20:40:24.096Z,76.10
2019-03-28T20:42:53.191Z,77.20
2019-03-28T20:45:22.019Z,78.60
2019-03-28T20:47:50.953Z,78.60
2019-03-28T20:50:19.600Z,78.10
2019-03-28T20:52:48.132Z,79.20
2019-03-28T20:55:16.640Z,77.80
2019-03-28T20:57:45.142Z,77.80
2019-03-28T21:00:13.570Z,78.10
2019-03-28T21:02:41.973Z,77.10
2019-03-28T21:05:10.421Z,77.70
2019-03-28T21:07:46.041Z,80.20
2019-03-28T21:10:20.626Z,79.50
2019-03-28T21:12:49.040Z,79.10
2019-03-28T21:15:17.492Z,78.60
2019-03-28T21:17:45.948Z,77.30
2019-03-28T21:20:14.370Z,78.30
2019-03-28T21:22:43.074Z,77.50
2019-03-28T21:25:11.644Z,79.10
2019-03-28T21:27:40.050Z,80.20
2019-03-28T21:30:09.694Z,79.90
2019-03-28T21:32:54.733Z,81.20
2019-03-28T21:35:13.003Z,81.20
2019-03-28T21:37:41.476Z,80.60
2019-03-28T21:40:09.888Z,79.50
2019-03-28T21:42:38.814Z,79.80
2019-03-28T21:45:07.412Z,79.40
2019-03-28T21:47:36.460Z,81.00
2019-03-28T21:50:06.506Z,80.30
2019-03-28T21:52:34.977Z,81.10
2019-03-28T21:55:04.267Z,81.00
2019-03-28T21:57:32.667Z,81.30
2019-03-28T22:00:01.124Z,81.60
2019-03-28T22:02:29.552Z,82.20
2019-03-28T22:04:57.977Z,80.80
2019-03-28T22:07:26.388Z,80.80
2019-03-28T22:09:54.819Z,81.00
2019-03-28T22:12:24.207Z,80.70
2019-03-28T22:14:52.702Z,80.90
2019-03-28T22:17:21.123Z,81.50
2019-03-28T22:19:51.685Z,82.10
2019-03-28T22:22:20.275Z,81.60
2019-03-28T22:24:48.734Z,81.00
2019-03-28T22:27:17.140Z,81.80
2019-03-28T22:29:49.293Z,82.30
2019-03-28T22:32:17.836Z,82.00
2019-03-28T22:34:47.909Z,80.90
2019-03-28T22:37:16.378Z,81.70
2019-03-28T22:39:44.792Z,82.30
2019-03-28T22:42:13.250Z,83.00
2019-03-28T22:44:41.655Z,82.20
2019-03-28T22:47:10.107Z,80.60
2019-03-28T22:49:38.565Z,80.00
2019-03-28T22:52:06.992Z,79.20
2019-03-28T22:54:35.824Z,78.40
2019-03-28T22:57:04.294Z,79.00
2019-03-28T22:59:32.709Z,78.50
2019-03-28T23:02:01.172Z,77.30
2019-03-28T23:04:30.077Z,73.30
2019-03-28T23:07:10.434Z,72.50
2019-03-28T23:09:28.698Z,72.90
2019-03-28T23:11:57.119Z,73.40
2019-03-28T23:14:25.606Z,74.10
2019-03-28T23:16:54.892Z,74.50
2019-03-28T23:19:23.463Z,75.30
2019-03-28T23:21:52.917Z,75.40
2019-03-28T23:24:21.415Z,75.90
2019-03-28T23:26:49.874Z,75.70
2019-03-28T23:29:18.325Z,75.30
2019-03-28T23:31:46.890Z,75.50
2019-03-28T23:34:15.430Z,76.50
2019-03-28T23:36:43.874Z,76.90
2019-03-28T23:39:12.358Z,75.10
2019-03-28T23:41:40.797Z,75.40
2019-03-28T23:44:09.272Z,76.00
2019-03-28T23:46:37.895Z,78.40
2019-03-28T23:49:06.378Z,77.00
2019-03-28T23:51:35.777Z,74.80
2019-03-28T23:54:04.187Z,74.20
2019-03-28T23:56:32.658Z,74.40
2019-03-28T23:59:01.083Z,74.80
